Time;durP1;ratioP1;P1;durP2;ratioP2;P2;SDS_P1;SDS_P2;PMS_P1;PMS_P2;Temp;Humidity;BMP_temperature;BMP_pressure;BME280_temperature;BME280_humidity;BME280_pressure;Samples;Min_cycle;Max_cycle;Signal;HPM_P1;HPM_P2
2022/06/01 00:01:11;;;;;;;32.20;29.00;;;;;;;;;;5011421;28;93983;-72
2022/06/01 00:03:39;;;;;;;35.08;31.48;;;;;;;;;;5013050;28;94222;-72
2022/06/01 00:06:05;;;;;;;35.13;31.27;;;;;;;;;;5012246;28;92476;-72
2022/06/01 00:08:31;;;;;;;37.28;33.55;;;;;;;;;;5011096;28;94803;-72
2022/06/01 00:10:58;;;;;;;38.42;34.53;;;;;;;;;;5015253;28;93496;-72
2022/06/01 00:13:26;;;;;;;35.65;32.15;;;;;;;;;;5012292;28;93345;-72
2022/06/01 00:15:53;;;;;;;40.88;36.58;;;;;;;;;;5011263;28;94302;-72
2022/06/01 00:18:22;;;;;;;41.97;35.85;;;;;;;;;;5011780;28;92550;-72
2022/06/01 00:20:52;;;;;;;40.55;36.33;;;;;;;;;;5026815;28;94900;-72
2022/06/01 00:23:19;;;;;;;41.17;36.78;;;;;;;;;;5031738;28;93217;-72
2022/06/01 00:25:46;;;;;;;40.83;36.08;;;;;;;;;;5031781;28;92494;-72
2022/06/01 00:28:13;;;;;;;42.55;37.95;;;;;;;;;;5031553;28;93994;-72
2022/06/01 00:30:39;;;;;;;39.95;35.55;;;;;;;;;;5031553;28;94311;-72
2022/06/01 00:33:05;;;;;;;44.05;39.28;;;;;;;;;;5035328;27;92526;-72
2022/06/01 00:35:32;;;;;;;39.58;35.60;;;;;;;;;;5033807;28;93608;-72
2022/06/01 00:37:58;;;;;;;43.40;38.42;;;;;;;;;;5034986;28;91714;-72
2022/06/01 00:40:26;;;;;;;40.22;35.38;;;;;;;;;;5034689;28;93375;-72
2022/06/01 00:42:54;;;;;;;40.22;36.08;;;;;;;;;;5034503;27;94169;-72
2022/06/01 00:45:21;;;;;;;40.42;36.17;;;;;;;;;;5033514;27;94940;-72
2022/06/01 00:47:48;;;;;;;41.10;36.75;;;;;;;;;;5034539;28;97350;-72
2022/06/01 00:50:23;;;;;;;45.05;38.28;;;;;;;;;;5034297;28;94157;-72
2022/06/01 00:53:00;;;;;;;41.28;36.72;;;;;;;;;;5034368;28;92395;-72
2022/06/01 00:55:29;;;;;;;40.53;34.25;;;;;;;;;;5008223;28;94042;-72
2022/06/01 00:57:58;;;;;;;37.00;33.10;;;;;;;;;;5013902;28;92701;-72
2022/06/01 01:00:26;;;;;;;33.78;30.27;;;;;;;;;;5014477;28;94010;-72
2022/06/01 01:02:55;;;;;;;35.10;30.75;;;;;;;;;;5014790;28;92837;-73
2022/06/01 01:05:22;;;;;;;35.45;31.75;;;;;;;;;;5014316;28;93070;-72
2022/06/01 01:07:51;;;;;;;33.80;30.15;;;;;;;;;;5014881;28;94278;-72
2022/06/01 01:10:18;;;;;;;30.67;27.65;;;;;;;;;;5012764;28;95664;-72
2022/06/01 01:12:57;;;;;;;29.48;26.60;;;;;;;;;;5014227;28;92505;-72
2022/06/01 01:15:26;;;;;;;29.77;26.83;;;;;;;;;;5017402;28;92969;-72
2022/06/01 01:17:54;;;;;;;27.98;25.33;;;;;;;;;;5014278;28;93024;-72
2022/06/01 01:20:21;;;;;;;29.40;26.50;;;;;;;;;;5014680;28;92967;-72
2022/06/01 01:23:06;;;;;;;22.27;19.90;;;;;;;;;;5014237;28;93083;-72
2022/06/01 01:25:34;;;;;;;24.98;22.20;;;;;;;;;;5013566;28;92598;-73
2022/06/01 01:28:01;;;;;;;25.83;22.73;;;;;;;;;;5015351;28;93948;-72
2022/06/01 01:30:37;;;;;;;24.67;22.35;;;;;;;;;;5014042;28;94398;-72
2022/06/01 01:33:08;;;;;;;26.50;24.02;;;;;;;;;;5013737;28;92526;-72
2022/06/01 01:35:35;;;;;;;21.95;19.65;;;;;;;;;;5012418;28;94937;-72
2022/06/01 01:38:06;;;;;;;23.58;21.08;;;;;;;;;;5017101;28;94176;-72
2022/06/01 01:40:33;;;;;;;25.50;22.55;;;;;;;;;;5012976;28;94680;-73
2022/06/01 01:43:00;;;;;;;23.73;21.35;;;;;;;;;;5014124;28;94080;-72
2022/06/01 01:45:29;;;;;;;18.30;16.50;;;;;;;;;;5012973;28;92980;-72
2022/06/01 01:47:56;;;;;;;17.95;15.82;;;;;;;;;;5014452;28;93199;-72
2022/06/01 01:50:24;;;;;;;17.92;16.05;;;;;;;;;;5014259;28;93083;-72
2022/06/01 01:52:51;;;;;;;15.30;14.00;;;;;;;;;;5013705;28;91739;-72
2022/06/01 01:55:32;;;;;;;15.05;13.57;;;;;;;;;;5013988;28;93461;-72
2022/06/01 01:58:07;;;;;;;15.70;14.20;;;;;;;;;;5013950;28;94478;-72
2022/06/01 02:00:36;;;;;;;16.25;14.73;;;;;;;;;;5014522;28;95374;-72
2022/06/01 02:03:14;;;;;;;15.88;13.85;;;;;;;;;;5026469;28;94431;-72
2022/06/01 02:06:06;;;;;;;16.95;15.25;;;;;;;;;;5033673;28;92532;-72
2022/06/01 02:08:35;;;;;;;12.77;11.52;;;;;;;;;;5032842;28;93949;-72
2022/06/01 02:14:26;;;;;;;10.88;10.02;;;;;;;;;;5033071;27;93400;-72
2022/06/01 02:16:56;;;;;;;10.23;9.38;;;;;;;;;;5033702;27;94188;-72
2022/06/01 02:19:26;;;;;;;10.35;9.55;;;;;;;;;;5020879;27;92612;-72
2022/06/01 02:21:54;;;;;;;10.05;9.25;;;;;;;;;;5013335;28;92419;-72
2022/06/01 02:24:21;;;;;;;10.20;9.25;;;;;;;;;;5017301;28;93932;-72
2022/06/01 02:26:49;;;;;;;10.18;8.70;;;;;;;;;;5012415;28;95214;-72
2022/06/01 02:29:21;;;;;;;9.60;8.65;;;;;;;;;;5013499;28;96369;-72
2022/06/01 02:31:49;;;;;;;10.27;9.40;;;;;;;;;;5014064;28;95536;-72
2022/06/01 02:34:16;;;;;;;10.80;9.80;;;;;;;;;;5013985;28;92509;-72
2022/06/01 02:36:43;;;;;;;12.98;10.93;;;;;;;;;;5013792;28;93994;-72
2022/06/01 02:39:12;;;;;;;11.98;10.73;;;;;;;;;;5012674;28;94467;-72
2022/06/01 02:44:23;;;;;;;14.48;12.98;;;;;;;;;;5013549;28;93981;-72
2022/06/01 02:46:50;;;;;;;14.95;13.50;;;;;;;;;;5016106;28;93284;-72
2022/06/01 02:49:17;;;;;;;16.80;14.70;;;;;;;;;;5012651;28;93461;-72
2022/06/01 02:51:44;;;;;;;15.38;13.77;;;;;;;;;;5011520;28;95899;-72
2022/06/01 02:54:10;;;;;;;16.75;15.15;;;;;;;;;;5010186;28;92560;-72
2022/06/01 02:56:37;;;;;;;17.92;16.20;;;;;;;;;;4994940;28;94268;-72
2022/06/01 02:59:04;;;;;;;18.33;16.17;;;;;;;;;;4993033;28;94445;-72
2022/06/01 03:01:32;;;;;;;19.58;16.67;;;;;;;;;;4992900;28;92509;-72
2022/06/01 03:03:58;;;;;;;22.38;18.77;;;;;;;;;;5012226;28;93896;-72
2022/06/01 03:06:25;;;;;;;18.17;16.20;;;;;;;;;;5012482;28;93337;-72
2022/06/01 03:09:11;;;;;;;19.35;17.33;;;;;;;;;;5016986;28;91780;-72
2022/06/01 03:11:38;;;;;;;19.75;17.55;;;;;;;;;;5011917;28;94186;-72
2022/06/01 03:14:04;;;;;;;19.48;17.58;;;;;;;;;;5013102;28;92481;-72
2022/06/01 03:16:30;;;;;;;19.60;17.38;;;;;;;;;;5011500;28;94922;-72
2022/06/01 03:18:57;;;;;;;21.25;17.55;;;;;;;;;;5012123;28;92609;-72
2022/06/01 03:21:23;;;;;;;17.67;15.88;;;;;;;;;;5012199;28;92493;-72
2022/06/01 03:23:50;;;;;;;17.73;16.23;;;;;;;;;;5012195;28;94374;-72
2022/06/01 03:26:16;;;;;;;18.15;16.35;;;;;;;;;;5017003;28;93236;-72
2022/06/01 03:28:43;;;;;;;17.65;15.98;;;;;;;;;;5035739;27;92980;-72
2022/06/01 03:31:09;;;;;;;16.15;14.65;;;;;;;;;;5031926;28;94104;-72
2022/06/01 03:33:35;;;;;;;14.70;13.35;;;;;;;;;;5032939;28;91718;-72
2022/06/01 03:36:03;;;;;;;16.42;14.75;;;;;;;;;;5032474;28;92548;-72
2022/06/01 03:38:29;;;;;;;16.55;15.02;;;;;;;;;;5031475;28;94063;-72
2022/06/01 03:40:56;;;;;;;15.63;14.13;;;;;;;;;;5030636;28;95063;-72
2022/06/01 03:43:22;;;;;;;15.75;14.35;;;;;;;;;;5031724;28;96685;-72
2022/06/01 03:45:58;;;;;;;17.58;14.43;;;;;;;;;;5031604;28;93426;-72
2022/06/01 03:48:27;;;;;;;16.10;14.57;;;;;;;;;;5032656;27;92515;-72
2022/06/01 03:50:55;;;;;;;17.00;15.30;;;;;;;;;;5035601;27;93654;-72
2022/06/01 03:53:23;;;;;;;18.83;15.55;;;;;;;;;;5031737;28;92954;-72
2022/06/01 03:55:49;;;;;;;18.98;15.98;;;;;;;;;;5032461;28;93902;-72
2022/06/01 03:58:18;;;;;;;16.65;14.55;;;;;;;;;;5033000;28;93621;-72
2022/06/01 04:00:45;;;;;;;16.90;15.10;;;;;;;;;;5030436;28;92522;-72
2022/06/01 04:03:12;;;;;;;16.83;15.20;;;;;;;;;;5032597;27;93875;-72
2022/06/01 04:05:38;;;;;;;15.63;14.20;;;;;;;;;;5030097;27;95636;-72
2022/06/01 04:08:05;;;;;;;17.58;14.35;;;;;;;;;;5031583;27;92667;-72
2022/06/01 04:10:33;;;;;;;16.23;14.57;;;;;;;;;;5035759;27;93058;-72
2022/06/01 04:12:59;;;;;;;18.33;13.77;;;;;;;;;;5038070;28;94230;-72
2022/06/01 04:15:26;;;;;;;15.57;14.07;;;;;;;;;;5035449;28;93942;-72
2022/06/01 04:17:52;;;;;;;15.40;13.93;;;;;;;;;;5026298;27;94511;-72
2022/06/01 04:20:18;;;;;;;15.23;13.75;;;;;;;;;;5014771;28;92501;-72
2022/06/01 04:22:45;;;;;;;15.50;14.00;;;;;;;;;;5015527;28;93893;-72
2022/06/01 04:25:14;;;;;;;16.88;14.48;;;;;;;;;;5015217;28;94296;-72
2022/06/01 04:27:41;;;;;;;16.02;14.38;;;;;;;;;;5014484;28;92572;-72
2022/06/01 04:30:08;;;;;;;19.35;13.52;;;;;;;;;;5013578;28;95129;-72
2022/06/01 04:32:35;;;;;;;18.88;14.90;;;;;;;;;;5014889;28;93232;-72
2022/06/01 04:35:02;;;;;;;16.92;15.00;;;;;;;;;;5017944;28;92577;-72
2022/06/01 04:37:28;;;;;;;17.20;15.60;;;;;;;;;;5014919;28;94040;-72
2022/06/01 04:39:55;;;;;;;16.88;14.82;;;;;;;;;;5014724;28;92588;-73
2022/06/01 04:42:21;;;;;;;17.13;15.50;;;;;;;;;;5014700;28;93062;-72
2022/06/01 04:44:48;;;;;;;16.92;15.23;;;;;;;;;;5014513;28;94203;-71
2022/06/01 04:47:14;;;;;;;14.73;13.40;;;;;;;;;;5015497;28;91767;-72
2022/06/01 04:49:40;;;;;;;17.92;16.13;;;;;;;;;;5013781;28;93612;-71
2022/06/01 04:52:07;;;;;;;16.58;15.20;;;;;;;;;;5015487;28;94187;-71
2022/06/01 04:54:34;;;;;;;16.30;14.65;;;;;;;;;;5012644;28;94834;-72
2022/06/01 04:57:00;;;;;;;16.98;15.27;;;;;;;;;;5000248;28;96275;-72
2022/06/01 04:59:27;;;;;;;16.08;14.68;;;;;;;;;;4994279;28;92514;-71
2022/06/01 05:01:53;;;;;;;15.50;14.00;;;;;;;;;;4997638;28;93995;-72
2022/06/01 05:04:20;;;;;;;15.77;14.27;;;;;;;;;;5013518;28;94090;-73
2022/06/01 05:06:48;;;;;;;16.67;15.15;;;;;;;;;;5014519;28;92589;-72
2022/06/01 05:09:14;;;;;;;16.45;14.85;;;;;;;;;;5014377;28;94221;-73
2022/06/01 05:11:41;;;;;;;17.33;14.50;;;;;;;;;;5014711;28;92634;-72
2022/06/01 05:14:07;;;;;;;16.67;14.52;;;;;;;;;;5014605;28;92475;-72
2022/06/01 05:16:34;;;;;;;16.17;14.57;;;;;;;;;;5016513;28;93665;-71
2022/06/01 05:19:00;;;;;;;16.75;14.73;;;;;;;;;;5012401;28;94893;-72
2022/06/01 05:21:27;;;;;;;15.70;13.52;;;;;;;;;;5014329;28;94297;-73
2022/06/01 05:23:53;;;;;;;16.27;14.75;;;;;;;;;;5013817;28;92849;-70
2022/06/01 05:26:20;;;;;;;15.90;14.23;;;;;;;;;;5014998;28;92433;-71
2022/06/01 05:28:47;;;;;;;14.88;13.52;;;;;;;;;;5014622;28;94250;-71
2022/06/01 05:31:13;;;;;;;13.43;12.32;;;;;;;;;;5006901;28;95602;-71
2022/06/01 05:33:43;;;;;;;13.07;11.82;;;;;;;;;;4993263;28;93000;-71
2022/06/01 05:36:10;;;;;;;12.60;11.50;;;;;;;;;;4993693;28;94202;-71
2022/06/01 05:38:36;;;;;;;12.10;10.98;;;;;;;;;;4993766;28;94359;-71
2022/06/01 05:41:03;;;;;;;12.85;11.65;;;;;;;;;;4992120;28;93979;-70
2022/06/01 05:43:29;;;;;;;12.23;11.23;;;;;;;;;;5007344;28;96633;-71
2022/06/01 05:45:56;;;;;;;10.93;10.02;;;;;;;;;;5010957;28;92547;-70
2022/06/01 05:48:23;;;;;;;9.13;8.50;;;;;;;;;;4994775;28;92946;-71
2022/06/01 05:50:56;;;;;;;9.25;8.52;;;;;;;;;;4994866;28;94679;-71
2022/06/01 05:53:22;;;;;;;9.82;9.05;;;;;;;;;;4994318;28;92747;-71
2022/06/01 05:55:49;;;;;;;8.88;8.07;;;;;;;;;;4994549;28;92865;-71
2022/06/01 05:58:15;;;;;;;7.95;7.30;;;;;;;;;;4994850;28;94309;-70
2022/06/01 06:00:42;;;;;;;7.47;6.82;;;;;;;;;;5014838;28;92315;-71
2022/06/01 06:03:09;;;;;;;6.32;5.80;;;;;;;;;;5019075;28;94257;-72
2022/06/01 06:08:21;;;;;;;5.85;5.25;;;;;;;;;;5007543;28;94859;-72
2022/06/01 06:10:48;;;;;;;5.43;5.03;;;;;;;;;;4994241;28;93900;-72
2022/06/01 06:13:15;;;;;;;5.05;3.90;;;;;;;;;;4993815;28;93052;-72
2022/06/01 06:15:41;;;;;;;4.53;4.00;;;;;;;;;;4994194;28;93995;-71
2022/06/01 06:18:11;;;;;;;7.57;3.45;;;;;;;;;;4993480;28;92408;-73
2022/06/01 06:20:40;;;;;;;3.88;3.10;;;;;;;;;;4992221;28;93731;-73
2022/06/01 06:23:06;;;;;;;2.70;2.58;;;;;;;;;;4998382;28;93957;-73
2022/06/01 06:25:39;;;;;;;3.40;2.30;;;;;;;;;;4996658;28;94134;-73
2022/06/01 06:28:06;;;;;;;2.50;2.30;;;;;;;;;;4993833;28;93227;-72
2022/06/01 06:30:32;;;;;;;2.90;2.20;;;;;;;;;;4994209;28;93285;-73
2022/06/01 06:32:58;;;;;;;2.05;1.92;;;;;;;;;;4992109;28;94948;-73
2022/06/01 06:35:25;;;;;;;1.90;1.77;;;;;;;;;;4992989;28;96208;-73
2022/06/01 06:37:51;;;;;;;2.70;1.92;;;;;;;;;;4995832;28;93300;-72
2022/06/01 06:40:18;;;;;;;1.90;1.67;;;;;;;;;;5002801;28;92592;-72
2022/06/01 06:42:45;;;;;;;3.83;1.55;;;;;;;;;;5013194;28;93817;-72
2022/06/01 06:45:11;;;;;;;1.75;1.60;;;;;;;;;;5016978;28;94584;-73
2022/06/01 06:47:38;;;;;;;5.70;1.50;;;;;;;;;;5013218;28;93929;-72
2022/06/01 06:50:06;;;;;;;6.00;1.80;;;;;;;;;;4999966;28;93794;-74
2022/06/01 06:52:32;;;;;;;3.28;1.85;;;;;;;;;;5012947;28;92838;-73
2022/06/01 06:54:59;;;;;;;4.03;1.95;;;;;;;;;;5012694;28;93927;-73
2022/06/01 06:57:25;;;;;;;3.55;2.00;;;;;;;;;;5006977;28;96523;-73
2022/06/01 06:59:51;;;;;;;3.03;1.83;;;;;;;;;;4998089;28;92528;-73
2022/06/01 07:02:18;;;;;;;5.38;1.65;;;;;;;;;;4993339;28;93301;-73
2022/06/01 07:04:46;;;;;;;6.20;2.25;;;;;;;;;;4993497;28;94400;-73
2022/06/01 07:07:15;;;;;;;2.13;1.70;;;;;;;;;;4996639;28;92780;-74
2022/06/01 07:09:42;;;;;;;3.65;1.92;;;;;;;;;;4992478;28;94011;-73
2022/06/01 07:12:10;;;;;;;3.65;2.28;;;;;;;;;;4993647;28;92794;-73
2022/06/01 07:14:37;;;;;;;3.28;2.80;;;;;;;;;;4993368;28;93198;-73
2022/06/01 07:17:03;;;;;;;1.50;1.40;;;;;;;;;;4992505;28;94087;-73
2022/06/01 07:19:30;;;;;;;2.65;2.20;;;;;;;;;;4999870;28;92505;-74
2022/06/01 07:21:56;;;;;;;4.53;2.22;;;;;;;;;;5012134;28;94875;-74
2022/06/01 07:24:23;;;;;;;2.08;1.98;;;;;;;;;;5012748;28;94452;-74
2022/06/01 07:26:49;;;;;;;3.58;2.25;;;;;;;;;;5005950;28;92480;-73
2022/06/01 07:29:18;;;;;;;2.92;2.50;;;;;;;;;;4993296;28;94427;-73
2022/06/01 07:31:46;;;;;;;4.07;2.65;;;;;;;;;;4992136;28;92603;-73
2022/06/01 07:34:12;;;;;;;2.33;2.13;;;;;;;;;;4993833;28;93908;-73
2022/06/01 07:36:39;;;;;;;4.97;2.70;;;;;;;;;;4992643;28;93293;-75
2022/06/01 07:43:05;;;;;;;3.58;2.55;;;;;;;;;;4993573;28;92412;-75
2022/06/01 07:44:43;;;;;;;2.78;2.58;;;;;;;;;;4994816;28;94107;-75
2022/06/01 07:47:10;;;;;;;3.80;2.25;;;;;;;;;;5015228;28;94846;-75
2022/06/01 07:49:59;;;;;;;2.20;2.00;;;;;;;;;;5019309;28;96304;-75
2022/06/01 07:52:48;;;;;;;2.20;1.95;;;;;;;;;;5015644;28;92482;-75
2022/06/01 07:55:14;;;;;;;4.55;2.30;;;;;;;;;;5016330;28;93212;-75
2022/06/01 07:57:41;;;;;;;3.03;2.28;;;;;;;;;;5015944;28;94319;-75
2022/06/01 08:00:08;;;;;;;4.68;2.33;;;;;;;;;;5016072;28;92828;-74
2022/06/01 08:02:41;;;;;;;2.53;2.33;;;;;;;;;;5016419;28;94295;-75
2022/06/01 08:05:08;;;;;;;3.45;2.33;;;;;;;;;;5016092;28;93379;-74
2022/06/01 08:07:34;;;;;;;2.40;2.22;;;;;;;;;;5016208;28;92399;-75
2022/06/01 08:10:02;;;;;;;4.10;2.00;;;;;;;;;;5016502;28;93190;-75
2022/06/01 08:15:13;;;;;;;1.67;1.50;;;;;;;;;;5016587;28;96479;-74
2022/06/01 08:17:47;;;;;;;2.13;1.92;;;;;;;;;;5015819;28;94557;-74
2022/06/01 08:20:14;;;;;;;1.80;1.70;;;;;;;;;;5015524;28;92840;-75
2022/06/01 08:22:41;;;;;;;2.15;1.73;;;;;;;;;;5015997;28;93888;-74
2022/06/01 08:25:08;;;;;;;1.98;1.88;;;;;;;;;;5016142;28;94144;-75
2022/06/01 08:27:35;;;;;;;1.58;1.48;;;;;;;;;;5015138;28;92628;-74
2022/06/01 08:30:02;;;;;;;2.05;1.30;;;;;;;;;;5016575;28;94030;-75
2022/06/01 08:32:30;;;;;;;2.95;1.50;;;;;;;;;;5015493;28;93863;-75
2022/06/01 08:34:56;;;;;;;1.88;1.77;;;;;;;;;;5018359;28;92492;-75
2022/06/01 08:37:23;;;;;;;5.35;1.98;;;;;;;;;;5014218;28;96432;-75
2022/06/01 08:39:49;;;;;;;2.58;1.80;;;;;;;;;;5015350;28;92505;-75
2022/06/01 08:42:19;;;;;;;3.10;1.33;;;;;;;;;;5014225;28;93810;-75
2022/06/01 08:44:46;;;;;;;3.03;1.30;;;;;;;;;;5014655;28;93580;-75
2022/06/01 08:47:19;;;;;;;2.08;1.50;;;;;;;;;;5013939;28;93410;-75
2022/06/01 08:49:45;;;;;;;1.70;0.98;;;;;;;;;;5014475;28;92485;-73
2022/06/01 08:52:11;;;;;;;1.67;1.25;;;;;;;;;;5014884;28;94287;-74
2022/06/01 08:54:38;;;;;;;3.63;1.40;;;;;;;;;;5014054;28;92152;-74
2022/06/01 08:57:13;;;;;;;1.27;1.20;;;;;;;;;;5012219;28;92413;-74
2022/06/01 08:59:47;;;;;;;1.50;1.20;;;;;;;;;;4993877;28;93373;-75
2022/06/01 09:02:20;;;;;;;2.97;1.65;;;;;;;;;;4992485;28;95286;-74
2022/06/01 09:04:49;;;;;;;2.85;1.40;;;;;;;;;;4994174;28;93105;-75
2022/06/01 09:07:23;;;;;;;2.05;1.30;;;;;;;;;;4994407;28;92496;-75
2022/06/01 09:10:08;;;;;;;1.70;1.40;;;;;;;;;;4993913;28;94444;-75
2022/06/01 09:12:35;;;;;;;1.05;0.95;;;;;;;;;;4994018;28;94520;-75
2022/06/01 09:15:08;;;;;;;1.83;1.08;;;;;;;;;;4994322;28;93201;-75
2022/06/01 09:17:35;;;;;;;1.88;1.08;;;;;;;;;;4993397;28;93923;-74
2022/06/01 09:22:53;;;;;;;2.40;0.80;;;;;;;;;;5000957;28;93120;-75
2022/06/01 09:25:27;;;;;;;1.08;0.98;;;;;;;;;;5013961;28;93192;-74
2022/06/01 09:27:59;;;;;;;1.83;0.82;;;;;;;;;;5012389;28;94833;-74
2022/06/01 09:30:31;;;;;;;1.25;1.15;;;;;;;;;;5024258;28;96179;-73
2022/06/01 09:33:16;;;;;;;2.90;1.20;;;;;;;;;;5033832;28;94027;-73
2022/06/01 09:35:45;;;;;;;2.47;1.10;;;;;;;;;;5033688;28;92467;-72
2022/06/01 09:38:19;;;;;;;2.53;1.30;;;;;;;;;;5032968;28;94328;-73
2022/06/01 09:40:45;;;;;;;2.00;1.30;;;;;;;;;;4997327;28;1127808;-73
2022/06/01 09:43:22;;;;;;;1.20;1.10;;;;;;;;;;5035128;28;94163;-75
2022/06/01 09:45:53;;;;;;;1.27;0.80;;;;;;;;;;5034436;28;92379;-74
2022/06/01 09:48:27;;;;;;;4.07;1.30;;;;;;;;;;5030168;28;92949;-73
2022/06/01 09:51:05;;;;;;;3.60;1.48;;;;;;;;;;5002343;28;93950;-72
2022/06/01 09:53:39;;;;;;;4.07;1.45;;;;;;;;;;4998137;28;96948;-73
2022/06/01 09:56:05;;;;;;;7.63;1.35;;;;;;;;;;4999468;28;92730;-74
2022/06/01 10:06:58;;;;;;;1.40;1.10;;;;;;;;;;5008754;28;94279;-72
2022/06/01 10:09:26;;;;;;;1.23;1.00;;;;;;;;;;4993916;28;94034;-73
2022/06/01 10:11:54;;;;;;;2.08;0.82;;;;;;;;;;4999347;28;94558;-73
2022/06/01 10:14:23;;;;;;;1.20;1.10;;;;;;;;;;4996684;28;93556;-73
2022/06/01 10:16:52;;;;;;;1.40;1.30;;;;;;;;;;5000516;28;92882;-73
2022/06/01 10:19:28;;;;;;;1.40;1.00;;;;;;;;;;5000103;28;94950;-73
2022/06/01 10:22:10;;;;;;;2.67;1.23;;;;;;;;;;4997498;28;93415;-73
2022/06/01 10:24:40;;;;;;;0.82;0.82;;;;;;;;;;4998775;28;94317;-73
2022/06/01 10:27:06;;;;;;;1.02;0.93;;;;;;;;;;5012488;28;93061;-73
2022/06/01 10:29:38;;;;;;;1.55;1.25;;;;;;;;;;4996824;28;92507;-73
2022/06/01 10:32:10;;;;;;;4.28;1.00;;;;;;;;;;5001861;28;94082;-73
2022/06/01 10:34:36;;;;;;;;;;;;;;;;;;5002559;28;94820;-73
2022/06/01 10:37:05;;;;;;;5.28;0.90;;;;;;;;;;5009284;28;116949;-74
2022/06/01 10:39:35;;;;;;;1.10;1.10;;;;;;;;;;5011491;28;93178;-73
2022/06/01 10:42:04;;;;;;;0.80;0.80;;;;;;;;;;5012581;28;92455;-73
2022/06/01 10:44:37;;;;;;;1.50;0.85;;;;;;;;;;5010632;28;95281;-73
2022/06/01 10:47:08;;;;;;;2.08;1.10;;;;;;;;;;5012013;28;96469;-73
2022/06/01 10:49:43;;;;;;;1.10;1.10;;;;;;;;;;5016354;28;93994;-73
2022/06/01 10:52:16;;;;;;;4.00;0.85;;;;;;;;;;5013540;28;92732;-73
2022/06/01 10:54:50;;;;;;;1.33;1.08;;;;;;;;;;5012615;28;94493;-73
2022/06/01 10:57:18;;;;;;;0.88;0.80;;;;;;;;;;5013797;28;92571;-73
2022/06/01 10:59:45;;;;;;;1.23;0.90;;;;;;;;;;4991704;28;94010;-73
2022/06/01 11:02:12;;;;;;;1.77;0.95;;;;;;;;;;4993393;28;93452;-73
2022/06/01 11:05:02;;;;;;;1.45;0.80;;;;;;;;;;4993254;28;92541;-73
2022/06/01 11:07:29;;;;;;;2.75;1.10;;;;;;;;;;4993364;28;93136;-73
2022/06/01 11:10:13;;;;;;;1.00;1.00;;;;;;;;;;4991158;28;95663;-72
2022/06/01 11:12:59;;;;;;;1.00;1.00;;;;;;;;;;4996473;28;92400;-73
2022/06/01 11:15:34;;;;;;;1.73;1.00;;;;;;;;;;4992464;28;94228;-73
2022/06/01 11:18:04;;;;;;;0.82;0.82;;;;;;;;;;4993222;28;92426;-73
2022/06/01 11:20:30;;;;;;;4.32;1.02;;;;;;;;;;4993375;28;93136;-73
2022/06/01 11:22:56;;;;;;;0.90;0.90;;;;;;;;;;5002730;28;93391;-73
2022/06/01 11:25:32;;;;;;;0.80;0.80;;;;;;;;;;5003645;28;92574;-73
2022/06/01 11:28:16;;;;;;;0.88;0.88;;;;;;;;;;5010979;28;93990;-72
2022/06/01 11:30:51;;;;;;;1.38;1.25;;;;;;;;;;5005898;28;94329;-72
2022/06/01 11:33:24;;;;;;;1.20;1.10;;;;;;;;;;4993406;28;92494;-73
2022/06/01 11:35:59;;;;;;;1.00;1.00;;;;;;;;;;4994869;28;94894;-72
2022/06/01 11:38:28;;;;;;;2.65;1.10;;;;;;;;;;5002128;28;92499;-72
2022/06/01 11:40:54;;;;;;;0.93;0.73;;;;;;;;;;4998175;28;93226;-73
2022/06/01 11:43:35;;;;;;;0.80;0.80;;;;;;;;;;4992541;28;93413;-73
2022/06/01 11:46:10;;;;;;;0.93;0.60;;;;;;;;;;4993273;28;92446;-73
2022/06/01 11:48:39;;;;;;;0.82;0.80;;;;;;;;;;4992952;28;93254;-73
2022/06/01 11:51:19;;;;;;;0.80;0.80;;;;;;;;;;4992269;28;94582;-73
2022/06/01 11:53:46;;;;;;;3.10;1.10;;;;;;;;;;4993836;28;91744;-73
2022/06/01 11:56:31;;;;;;;3.65;1.05;;;;;;;;;;4996104;28;93258;-73
2022/06/01 11:59:05;;;;;;;0.93;0.93;;;;;;;;;;4992196;28;92435;-73
2022/06/01 12:01:45;;;;;;;1.55;1.25;;;;;;;;;;4991265;28;94865;-73
2022/06/01 12:04:21;;;;;;;1.55;1.45;;;;;;;;;;4992272;28;93950;-73
2022/06/01 12:06:50;;;;;;;1.10;1.10;;;;;;;;;;4992207;28;92527;-73
2022/06/01 12:09:39;;;;;;;1.65;1.30;;;;;;;;;;4992055;28;93768;-73
2022/06/01 12:12:06;;;;;;;6.75;1.50;;;;;;;;;;5006687;28;93457;-73
2022/06/01 12:14:33;;;;;;;1.52;1.42;;;;;;;;;;5011135;28;92440;-73
2022/06/01 12:17:17;;;;;;;1.83;1.73;;;;;;;;;;4992629;28;92483;-73
2022/06/01 12:19:47;;;;;;;1.95;1.63;;;;;;;;;;5031678;27;92698;-73
2022/06/01 12:30:52;;;;;;;4.65;1.27;;;;;;;;;;4995439;28;96403;-73
2022/06/01 12:33:19;;;;;;;3.33;1.30;;;;;;;;;;4995075;28;93369;-73
2022/06/01 12:35:55;;;;;;;1.55;1.45;;;;;;;;;;4996005;28;92524;-73
2022/06/01 12:38:31;;;;;;;3.47;1.30;;;;;;;;;;4995826;28;93211;-73
2022/06/01 12:41:02;;;;;;;3.53;1.58;;;;;;;;;;4994994;28;94517;-73
2022/06/01 12:43:29;;;;;;;1.98;1.17;;;;;;;;;;4998844;28;92670;-73
2022/06/01 12:45:56;;;;;;;1.83;1.20;;;;;;;;;;4996053;28;92528;-73
2022/06/01 12:48:23;;;;;;;1.75;1.50;;;;;;;;;;4994753;28;92688;-73
2022/06/01 12:50:53;;;;;;;2.47;1.60;;;;;;;;;;4995787;28;94499;-74
2022/06/01 12:53:20;;;;;;;1.65;1.55;;;;;;;;;;4993582;28;96322;-75
2022/06/01 12:55:47;;;;;;;4.82;1.63;;;;;;;;;;4995513;28;92604;-76
2022/06/01 12:58:26;;;;;;;3.22;1.55;;;;;;;;;;4995731;28;94087;-76
2022/06/01 13:00:56;;;;;;;2.20;2.05;;;;;;;;;;4992853;28;94253;-75
2022/06/01 13:03:24;;;;;;;1.55;1.45;;;;;;;;;;4995663;28;92842;-76
2022/06/01 13:05:52;;;;;;;1.50;1.40;;;;;;;;;;4998551;28;93030;-76
2022/06/01 13:08:21;;;;;;;1.00;1.00;;;;;;;;;;4995014;28;92606;-75
2022/06/01 13:10:56;;;;;;;1.40;1.10;;;;;;;;;;4996275;28;92760;-73
2022/06/01 13:13:27;;;;;;;1.52;1.42;;;;;;;;;;4995753;28;93772;-72
2022/06/01 13:16:01;;;;;;;2.30;2.07;;;;;;;;;;4994452;28;92526;-72
2022/06/01 13:18:30;;;;;;;4.80;1.70;;;;;;;;;;4993400;28;95341;-72
2022/06/01 13:21:16;;;;;;;1.85;1.75;;;;;;;;;;4995055;28;93995;-72
2022/06/01 13:23:55;;;;;;;5.20;1.70;;;;;;;;;;4996338;28;93294;-72
2022/06/01 13:26:33;;;;;;;2.25;1.70;;;;;;;;;;4995181;28;94121;-72
2022/06/01 13:29:20;;;;;;;2.55;1.90;;;;;;;;;;4997459;28;94188;-72
2022/06/01 13:31:51;;;;;;;1.63;1.52;;;;;;;;;;4990545;28;95013;-72
2022/06/01 13:34:22;;;;;;;1.75;1.65;;;;;;;;;;4994972;28;94356;-72
2022/06/01 13:36:49;;;;;;;2.60;1.67;;;;;;;;;;4994731;28;91729;-71
2022/06/01 13:39:25;;;;;;;2.83;1.63;;;;;;;;;;4994793;28;93175;-72
2022/06/01 13:41:53;;;;;;;1.63;1.52;;;;;;;;;;4993976;28;93157;-72
2022/06/01 13:44:38;;;;;;;1.85;1.58;;;;;;;;;;4992589;28;95699;-72
2022/06/01 13:47:05;;;;;;;1.70;1.60;;;;;;;;;;4994892;28;96296;-71
2022/06/01 13:49:41;;;;;;;1.80;1.70;;;;;;;;;;4994057;28;94259;-72
2022/06/01 13:52:08;;;;;;;1.80;1.70;;;;;;;;;;4997904;28;92581;-72
2022/06/01 13:54:36;;;;;;;2.78;1.98;;;;;;;;;;4994386;28;94296;-71
2022/06/01 13:57:16;;;;;;;1.70;1.60;;;;;;;;;;4993679;28;92455;-72
2022/06/01 13:59:53;;;;;;;3.10;1.90;;;;;;;;;;4994232;28;93119;-72
2022/06/01 14:02:30;;;;;;;1.67;1.58;;;;;;;;;;4995152;28;93532;-72
2022/06/01 14:05:04;;;;;;;1.90;1.80;;;;;;;;;;4994156;28;92941;-72
2022/06/01 14:07:40;;;;;;;2.38;1.60;;;;;;;;;;4994385;28;92505;-72
2022/06/01 14:10:07;;;;;;;1.38;1.38;;;;;;;;;;4992596;28;95808;-71
2022/06/01 14:12:34;;;;;;;2.45;1.70;;;;;;;;;;4996662;28;92918;-73
2022/06/01 14:15:01;;;;;;;3.20;1.85;;;;;;;;;;4994485;28;94093;-71
2022/06/01 14:17:27;;;;;;;5.18;2.13;;;;;;;;;;4994353;28;92496;-70
2022/06/01 14:20:01;;;;;;;1.90;1.80;;;;;;;;;;4993633;28;93897;-70
2022/06/01 14:22:28;;;;;;;3.10;1.70;;;;;;;;;;4993753;28;93686;-70
2022/06/01 14:30:24;;;;;;;3.95;2.08;;;;;;;;;;4993974;28;93190;-71
2022/06/01 14:32:50;;;;;;;2.28;2.08;;;;;;;;;;4993272;28;92642;-71
2022/06/01 14:35:17;;;;;;;3.22;2.13;;;;;;;;;;4995725;28;94890;-72
2022/06/01 14:37:44;;;;;;;3.22;2.03;;;;;;;;;;4993782;28;92562;-71
2022/06/01 14:40:11;;;;;;;2.28;1.83;;;;;;;;;;4993162;28;94031;-70
2022/06/01 14:42:37;;;;;;;2.45;2.25;;;;;;;;;;4993798;28;94236;-70
2022/06/01 14:45:04;;;;;;;3.10;1.73;;;;;;;;;;4994546;28;92551;-71
2022/06/01 14:47:31;;;;;;;4.00;2.30;;;;;;;;;;4993375;28;93088;-70
2022/06/01 14:49:58;;;;;;;2.25;2.00;;;;;;;;;;4994546;28;93614;-71
2022/06/01 14:52:24;;;;;;;4.35;2.30;;;;;;;;;;4993788;28;91711;-71
2022/06/01 14:54:51;;;;;;;3.10;2.30;;;;;;;;;;4993224;28;93186;-71
2022/06/01 14:57:17;;;;;;;2.85;2.55;;;;;;;;;;4996857;28;94194;-74
2022/06/01 14:59:45;;;;;;;2.35;2.10;;;;;;;;;;4991318;28;95632;-70
2022/06/01 15:02:12;;;;;;;3.53;3.22;;;;;;;;;;4993376;28;94264;-71
2022/06/01 15:04:40;;;;;;;3.03;2.83;;;;;;;;;;4993400;28;92851;-70
2022/06/01 15:07:10;;;;;;;2.72;2.47;;;;;;;;;;4993196;28;93034;-71
2022/06/01 15:09:36;;;;;;;3.03;2.72;;;;;;;;;;4993160;28;94239;-71
2022/06/01 15:12:08;;;;;;;4.63;2.50;;;;;;;;;;4993919;28;92763;-71
2022/06/01 15:14:38;;;;;;;3.53;2.50;;;;;;;;;;4992639;28;93367;-71
2022/06/01 15:17:10;;;;;;;4.32;2.33;;;;;;;;;;5011734;28;92642;-71
2022/06/01 15:19:42;;;;;;;1.97;1.90;;;;;;;;;;5016313;28;92464;-71
2022/06/01 15:22:09;;;;;;;2.25;2.05;;;;;;;;;;5012501;28;93465;-71
2022/06/01 15:24:35;;;;;;;3.42;2.03;;;;;;;;;;5011542;28;95041;-71
2022/06/01 15:27:02;;;;;;;2.53;2.35;;;;;;;;;;5013350;28;95844;-71